sensor_id;sensor_type;location;lat;lon;timestamp;temperature;humidity
72128;DHT22;60000;51.030;7.024;2023-07-29T00:01:35;19.28;90.08
72128;DHT22;60000;51.030;7.024;2023-07-29T00:04:01;19.27;90.12
72128;DHT22;60000;51.030;7.024;2023-07-29T00:06:26;19.26;90.13
72128;DHT22;60000;51.030;7.024;2023-07-29T00:08:52;19.26;90.22
72128;DHT22;60000;51.030;7.024;2023-07-29T00:11:17;19.27;90.22
72128;DHT22;60000;51.030;7.024;2023-07-29T00:13:42;19.26;90.22
72128;DHT22;60000;51.030;7.024;2023-07-29T00:16:08;19.24;90.24
72128;DHT22;60000;51.030;7.024;2023-07-29T00:18:33;19.24;90.20
72128;DHT22;60000;51.030;7.024;2023-07-29T00:20:58;19.26;90.25
72128;DHT22;60000;51.030;7.024;2023-07-29T00:23:24;19.23;90.29
72128;DHT22;60000;51.030;7.024;2023-07-29T00:25:49;19.23;90.29
72128;DHT22;60000;51.030;7.024;2023-07-29T00:28:15;19.23;90.27
72128;DHT22;60000;51.030;7.024;2023-07-29T00:30:40;19.22;90.31
72128;DHT22;60000;51.030;7.024;2023-07-29T00:33:06;19.20;90.36
72128;DHT22;60000;51.030;7.024;2023-07-29T00:35:31;19.19;90.36
72128;DHT22;60000;51.030;7.024;2023-07-29T00:37:56;19.19;90.42
72128;DHT22;60000;51.030;7.024;2023-07-29T00:40:22;19.19;90.46
72128;DHT22;60000;51.030;7.024;2023-07-29T00:42:48;19.15;90.57
72128;DHT22;60000;51.030;7.024;2023-07-29T00:45:14;19.16;90.61
72128;DHT22;60000;51.030;7.024;2023-07-29T00:47:41;19.15;90.73
72128;DHT22;60000;51.030;7.024;2023-07-29T00:50:09;19.13;90.86
72128;DHT22;60000;51.030;7.024;2023-07-29T00:52:34;19.10;90.96
72128;DHT22;60000;51.030;7.024;2023-07-29T00:54:59;19.12;91.02
72128;DHT22;60000;51.030;7.024;2023-07-29T00:57:25;19.07;91.12
72128;DHT22;60000;51.030;7.024;2023-07-29T00:59:51;19.07;91.14
72128;DHT22;60000;51.030;7.024;2023-07-29T01:02:17;19.07;91.24
72128;DHT22;60000;51.030;7.024;2023-07-29T01:04:43;19.06;91.31
72128;DHT22;60000;51.030;7.024;2023-07-29T01:10:02;18.99;91.46
72128;DHT22;60000;51.030;7.024;2023-07-29T01:13:05;19.00;91.51
72128;DHT22;60000;51.030;7.024;2023-07-29T01:15:39;18.99;91.59
72128;DHT22;60000;51.030;7.024;2023-07-29T01:18:11;18.98;91.62
72128;DHT22;60000;51.030;7.024;2023-07-29T01:20:40;18.98;91.70
72128;DHT22;60000;51.030;7.024;2023-07-29T01:23:05;18.95;91.74
72128;DHT22;60000;51.030;7.024;2023-07-29T01:25:30;18.95;91.77
72128;DHT22;60000;51.030;7.024;2023-07-29T01:27:56;18.94;91.84
72128;DHT22;60000;51.030;7.024;2023-07-29T01:30:26;18.89;91.80
72128;DHT22;60000;51.030;7.024;2023-07-29T01:33:25;18.91;91.90
72128;DHT22;60000;51.030;7.024;2023-07-29T01:36:03;18.88;91.97
72128;DHT22;60000;51.030;7.024;2023-07-29T01:38:36;18.86;92.04
72128;DHT22;60000;51.030;7.024;2023-07-29T01:41:04;18.85;92.12
72128;DHT22;60000;51.030;7.024;2023-07-29T01:43:30;18.85;92.12
72128;DHT22;60000;51.030;7.024;2023-07-29T01:45:56;18.86;92.19
72128;DHT22;60000;51.030;7.024;2023-07-29T01:48:21;18.85;92.18
72128;DHT22;60000;51.030;7.024;2023-07-29T01:50:47;18.85;92.22
72128;DHT22;60000;51.030;7.024;2023-07-29T01:53:12;18.85;92.22
72128;DHT22;60000;51.030;7.024;2023-07-29T01:55:38;18.86;92.24
72128;DHT22;60000;51.030;7.024;2023-07-29T01:58:04;18.88;92.26
72128;DHT22;60000;51.030;7.024;2023-07-29T02:00:29;18.88;92.24
72128;DHT22;60000;51.030;7.024;2023-07-29T02:02:55;18.91;92.24
72128;DHT22;60000;51.030;7.024;2023-07-29T02:05:20;18.89;92.25
72128;DHT22;60000;51.030;7.024;2023-07-29T02:07:45;18.89;92.28
72128;DHT22;60000;51.030;7.024;2023-07-29T02:10:11;18.91;92.30
72128;DHT22;60000;51.030;7.024;2023-07-29T02:12:36;18.95;92.24
72128;DHT22;60000;51.030;7.024;2023-07-29T02:15:01;18.92;92.27
72128;DHT22;60000;51.030;7.024;2023-07-29T02:17:27;18.94;92.32
72128;DHT22;60000;51.030;7.024;2023-07-29T02:19:52;18.95;92.29
72128;DHT22;60000;51.030;7.024;2023-07-29T02:22:18;18.96;92.29
72128;DHT22;60000;51.030;7.024;2023-07-29T02:24:44;18.95;92.38
72128;DHT22;60000;51.030;7.024;2023-07-29T02:27:09;18.96;92.37
72128;DHT22;60000;51.030;7.024;2023-07-29T02:29:34;18.96;92.48
72128;DHT22;60000;51.030;7.024;2023-07-29T02:32:00;18.96;92.50
72128;DHT22;60000;51.030;7.024;2023-07-29T02:34:25;18.96;92.49
72128;DHT22;60000;51.030;7.024;2023-07-29T02:36:51;18.95;92.59
72128;DHT22;60000;51.030;7.024;2023-07-29T02:39:16;18.95;92.55
72128;DHT22;60000;51.030;7.024;2023-07-29T02:41:41;18.96;92.60
72128;DHT22;60000;51.030;7.024;2023-07-29T02:44:07;18.95;92.68
72128;DHT22;60000;51.030;7.024;2023-07-29T02:46:32;18.95;92.74
72128;DHT22;60000;51.030;7.024;2023-07-29T02:48:57;18.92;92.77
72128;DHT22;60000;51.030;7.024;2023-07-29T02:51:23;18.92;92.84
72128;DHT22;60000;51.030;7.024;2023-07-29T02:53:48;18.94;92.87
72128;DHT22;60000;51.030;7.024;2023-07-29T02:56:13;18.94;92.94
72128;DHT22;60000;51.030;7.024;2023-07-29T02:58:39;18.91;92.98
72128;DHT22;60000;51.030;7.024;2023-07-29T03:01:05;18.92;93.03
72128;DHT22;60000;51.030;7.024;2023-07-29T03:03:31;18.91;93.06
72128;DHT22;60000;51.030;7.024;2023-07-29T03:06:08;18.94;93.09
72128;DHT22;60000;51.030;7.024;2023-07-29T03:08:34;18.92;93.12
72128;DHT22;60000;51.030;7.024;2023-07-29T03:11:09;18.91;93.16
72128;DHT22;60000;51.030;7.024;2023-07-29T03:13:34;18.89;93.25
72128;DHT22;60000;51.030;7.024;2023-07-29T03:16:29;18.89;93.37
72128;DHT22;60000;51.030;7.024;2023-07-29T03:18:54;18.91;93.46
72128;DHT22;60000;51.030;7.024;2023-07-29T03:21:20;18.89;93.54
72128;DHT22;60000;51.030;7.024;2023-07-29T03:23:45;18.91;93.60
72128;DHT22;60000;51.030;7.024;2023-07-29T03:26:10;18.92;93.61
72128;DHT22;60000;51.030;7.024;2023-07-29T03:28:40;18.95;93.66
72128;DHT22;60000;51.030;7.024;2023-07-29T03:31:06;18.92;93.70
72128;DHT22;60000;51.030;7.024;2023-07-29T03:33:32;18.95;93.67
72128;DHT22;60000;51.030;7.024;2023-07-29T03:35:57;18.94;93.69
72128;DHT22;60000;51.030;7.024;2023-07-29T03:38:23;18.95;93.71
72128;DHT22;60000;51.030;7.024;2023-07-29T03:40:48;18.94;93.70
72128;DHT22;60000;51.030;7.024;2023-07-29T03:43:14;18.95;93.70
72128;DHT22;60000;51.030;7.024;2023-07-29T03:45:40;18.94;93.71
72128;DHT22;60000;51.030;7.024;2023-07-29T03:48:05;18.91;93.64
72128;DHT22;60000;51.030;7.024;2023-07-29T03:50:33;18.91;93.75
72128;DHT22;60000;51.030;7.024;2023-07-29T03:52:58;18.91;93.71
72128;DHT22;60000;51.030;7.024;2023-07-29T03:55:24;18.91;93.72
72128;DHT22;60000;51.030;7.024;2023-07-29T03:57:49;18.89;93.72
72128;DHT22;60000;51.030;7.024;2023-07-29T04:00:14;18.89;93.68
72128;DHT22;60000;51.030;7.024;2023-07-29T04:02:41;18.91;93.71
72128;DHT22;60000;51.030;7.024;2023-07-29T04:05:07;18.91;93.67
72128;DHT22;60000;51.030;7.024;2023-07-29T04:07:34;18.92;93.68
72128;DHT22;60000;51.030;7.024;2023-07-29T04:10:00;18.88;93.74
72128;DHT22;60000;51.030;7.024;2023-07-29T04:12:26;18.88;93.64
72128;DHT22;60000;51.030;7.024;2023-07-29T04:14:51;18.89;93.68
72128;DHT22;60000;51.030;7.024;2023-07-29T04:17:16;18.86;93.71
72128;DHT22;60000;51.030;7.024;2023-07-29T04:19:42;18.86;93.75
72128;DHT22;60000;51.030;7.024;2023-07-29T04:22:07;18.86;93.74
72128;DHT22;60000;51.030;7.024;2023-07-29T04:24:32;18.85;93.78
72128;DHT22;60000;51.030;7.024;2023-07-29T04:26:58;18.86;93.74
72128;DHT22;60000;51.030;7.024;2023-07-29T04:29:23;18.86;93.72
72128;DHT22;60000;51.030;7.024;2023-07-29T04:31:50;18.85;93.70
72128;DHT22;60000;51.030;7.024;2023-07-29T04:34:15;18.82;93.71
72128;DHT22;60000;51.030;7.024;2023-07-29T04:36:40;18.84;93.70
72128;DHT22;60000;51.030;7.024;2023-07-29T04:39:06;18.79;93.69
72128;DHT22;60000;51.030;7.024;2023-07-29T04:41:31;18.81;93.63
72128;DHT22;60000;51.030;7.024;2023-07-29T04:43:56;18.79;93.57
72128;DHT22;60000;51.030;7.024;2023-07-29T04:46:21;18.78;93.51
72128;DHT22;60000;51.030;7.024;2023-07-29T04:48:47;18.75;93.53
72128;DHT22;60000;51.030;7.024;2023-07-29T04:51:12;18.73;93.60
72128;DHT22;60000;51.030;7.024;2023-07-29T04:53:37;18.75;93.57
72128;DHT22;60000;51.030;7.024;2023-07-29T04:56:03;18.76;93.60
72128;DHT22;60000;51.030;7.024;2023-07-29T04:58:29;18.78;93.53
72128;DHT22;60000;51.030;7.024;2023-07-29T05:00:58;18.76;93.50
72128;DHT22;60000;51.030;7.024;2023-07-29T05:03:23;18.78;93.40
72128;DHT22;60000;51.030;7.024;2023-07-29T05:05:48;18.79;93.29
72128;DHT22;60000;51.030;7.024;2023-07-29T05:08:14;18.81;93.21
72128;DHT22;60000;51.030;7.024;2023-07-29T05:10:39;18.81;93.13
72128;DHT22;60000;51.030;7.024;2023-07-29T05:13:04;18.86;92.95
72128;DHT22;60000;51.030;7.024;2023-07-29T05:15:29;18.85;92.88
72128;DHT22;60000;51.030;7.024;2023-07-29T05:17:55;18.91;92.90
72128;DHT22;60000;51.030;7.024;2023-07-29T05:20:21;18.92;92.76
72128;DHT22;60000;51.030;7.024;2023-07-29T05:22:46;18.92;92.66
72128;DHT22;60000;51.030;7.024;2023-07-29T05:25:11;18.92;92.75
72128;DHT22;60000;51.030;7.024;2023-07-29T05:27:37;18.99;92.79
72128;DHT22;60000;51.030;7.024;2023-07-29T05:30:02;18.99;92.68
72128;DHT22;60000;51.030;7.024;2023-07-29T05:32:27;19.02;92.79
72128;DHT22;60000;51.030;7.024;2023-07-29T05:34:53;19.06;92.95
72128;DHT22;60000;51.030;7.024;2023-07-29T05:37:18;19.12;92.89
72128;DHT22;60000;51.030;7.024;2023-07-29T05:39:43;19.15;92.77
72128;DHT22;60000;51.030;7.024;2023-07-29T05:42:09;19.12;92.68
72128;DHT22;60000;51.030;7.024;2023-07-29T05:44:34;19.10;92.64
72128;DHT22;60000;51.030;7.024;2023-07-29T05:47:00;19.09;92.43
72128;DHT22;60000;51.030;7.024;2023-07-29T05:49:25;19.06;92.31
72128;DHT22;60000;51.030;7.024;2023-07-29T05:51:50;19.02;92.16
72128;DHT22;60000;51.030;7.024;2023-07-29T05:54:18;18.98;92.13
72128;DHT22;60000;51.030;7.024;2023-07-29T05:56:43;19.02;92.15
72128;DHT22;60000;51.030;7.024;2023-07-29T05:59:08;19.02;92.06
72128;DHT22;60000;51.030;7.024;2023-07-29T06:01:34;19.03;92.12
72128;DHT22;60000;51.030;7.024;2023-07-29T06:04:00;19.06;92.12
72128;DHT22;60000;51.030;7.024;2023-07-29T06:06:25;19.10;91.86
72128;DHT22;60000;51.030;7.024;2023-07-29T06:08:50;19.15;91.83
72128;DHT22;60000;51.030;7.024;2023-07-29T06:11:16;19.13;91.36
72128;DHT22;60000;51.030;7.024;2023-07-29T06:13:41;19.15;91.23
72128;DHT22;60000;51.030;7.024;2023-07-29T06:16:07;19.17;91.03
72128;DHT22;60000;51.030;7.024;2023-07-29T06:18:32;19.15;89.98
72128;DHT22;60000;51.030;7.024;2023-07-29T06:20:57;19.15;88.72
72128;DHT22;60000;51.030;7.024;2023-07-29T06:23:23;19.10;88.43
72128;DHT22;60000;51.030;7.024;2023-07-29T06:25:48;19.05;88.11
72128;DHT22;60000;51.030;7.024;2023-07-29T06:28:13;19.02;87.40
72128;DHT22;60000;51.030;7.024;2023-07-29T06:30:39;18.95;87.54
72128;DHT22;60000;51.030;7.024;2023-07-29T06:33:04;18.92;87.28
72128;DHT22;60000;51.030;7.024;2023-07-29T06:35:30;18.89;87.08
72128;DHT22;60000;51.030;7.024;2023-07-29T06:37:55;18.84;87.01
72128;DHT22;60000;51.030;7.024;2023-07-29T06:40:20;18.84;87.29
72128;DHT22;60000;51.030;7.024;2023-07-29T06:42:46;18.81;87.20
72128;DHT22;60000;51.030;7.024;2023-07-29T06:45:11;18.82;87.07
72128;DHT22;60000;51.030;7.024;2023-07-29T06:47:37;18.81;86.88
72128;DHT22;60000;51.030;7.024;2023-07-29T06:50:02;18.82;86.93
72128;DHT22;60000;51.030;7.024;2023-07-29T06:52:27;18.81;87.05
72128;DHT22;60000;51.030;7.024;2023-07-29T06:54:53;18.81;87.25
72128;DHT22;60000;51.030;7.024;2023-07-29T06:57:18;18.78;87.35
72128;DHT22;60000;51.030;7.024;2023-07-29T06:59:43;18.81;87.14
72128;DHT22;60000;51.030;7.024;2023-07-29T07:02:09;18.81;87.34
72128;DHT22;60000;51.030;7.024;2023-07-29T07:04:34;18.82;87.24
72128;DHT22;60000;51.030;7.024;2023-07-29T07:06:59;18.91;87.52
72128;DHT22;60000;51.030;7.024;2023-07-29T07:09:25;19.03;87.68
72128;DHT22;60000;51.030;7.024;2023-07-29T07:11:51;19.16;87.84
72128;DHT22;60000;51.030;7.024;2023-07-29T07:14:16;19.34;87.47
72128;DHT22;60000;51.030;7.024;2023-07-29T07:16:41;19.43;86.71
72128;DHT22;60000;51.030;7.024;2023-07-29T07:19:06;19.50;86.16
72128;DHT22;60000;51.030;7.024;2023-07-29T07:21:32;19.70;86.15
72128;DHT22;60000;51.030;7.024;2023-07-29T07:24:00;19.88;85.52
72128;DHT22;60000;51.030;7.024;2023-07-29T07:26:25;19.86;83.91
72128;DHT22;60000;51.030;7.024;2023-07-29T07:28:50;19.99;84.37
72128;DHT22;60000;51.030;7.024;2023-07-29T07:31:17;20.06;83.90
72128;DHT22;60000;51.030;7.024;2023-07-29T07:33:42;20.06;83.01
72128;DHT22;60000;51.030;7.024;2023-07-29T07:36:07;20.05;82.56
72128;DHT22;60000;51.030;7.024;2023-07-29T07:38:33;20.06;82.05
72128;DHT22;60000;51.030;7.024;2023-07-29T07:40:58;20.08;81.08
72128;DHT22;60000;51.030;7.024;2023-07-29T07:43:24;20.02;80.69
72128;DHT22;60000;51.030;7.024;2023-07-29T07:45:49;20.11;80.93
72128;DHT22;60000;51.030;7.024;2023-07-29T07:48:14;20.23;80.39
72128;DHT22;60000;51.030;7.024;2023-07-29T07:50:41;20.47;80.69
72128;DHT22;60000;51.030;7.024;2023-07-29T07:53:07;20.50;79.26
72128;DHT22;60000;51.030;7.024;2023-07-29T07:55:32;20.49;78.61
72128;DHT22;60000;51.030;7.024;2023-07-29T07:57:57;20.46;78.35
72128;DHT22;60000;51.030;7.024;2023-07-29T08:00:23;20.43;78.67
72128;DHT22;60000;51.030;7.024;2023-07-29T08:02:48;20.40;77.74
72128;DHT22;60000;51.030;7.024;2023-07-29T08:05:13;20.36;77.91
72128;DHT22;60000;51.030;7.024;2023-07-29T08:07:39;20.30;77.35
72128;DHT22;60000;51.030;7.024;2023-07-29T08:10:04;20.30;77.70
72128;DHT22;60000;51.030;7.024;2023-07-29T08:12:30;20.32;77.49
72128;DHT22;60000;51.030;7.024;2023-07-29T08:14:55;20.49;78.26
72128;DHT22;60000;51.030;7.024;2023-07-29T08:17:21;20.57;77.09
72128;DHT22;60000;51.030;7.024;2023-07-29T08:19:46;20.72;76.71
72128;DHT22;60000;51.030;7.024;2023-07-29T08:22:11;20.83;76.68
72128;DHT22;60000;51.030;7.024;2023-07-29T08:24:37;21.12;75.31
72128;DHT22;60000;51.030;7.024;2023-07-29T08:27:02;21.11;74.49
72128;DHT22;60000;51.030;7.024;2023-07-29T08:29:27;21.21;74.10
72128;DHT22;60000;51.030;7.024;2023-07-29T08:31:53;21.59;74.20
72128;DHT22;60000;51.030;7.024;2023-07-29T08:34:20;21.53;72.65
72128;DHT22;60000;51.030;7.024;2023-07-29T08:36:45;21.66;72.84
72128;DHT22;60000;51.030;7.024;2023-07-29T08:39:10;21.88;72.14
72128;DHT22;60000;51.030;7.024;2023-07-29T08:41:48;22.31;71.27
72128;DHT22;60000;51.030;7.024;2023-07-29T08:44:21;22.57;70.34
72128;DHT22;60000;51.030;7.024;2023-07-29T08:46:48;22.84;68.48
72128;DHT22;60000;51.030;7.024;2023-07-29T08:49:14;22.69;66.78
72128;DHT22;60000;51.030;7.024;2023-07-29T08:51:42;22.47;64.35
72128;DHT22;60000;51.030;7.024;2023-07-29T08:54:07;22.37;66.30
72128;DHT22;60000;51.030;7.024;2023-07-29T08:56:34;22.23;66.31
72128;DHT22;60000;51.030;7.024;2023-07-29T08:58:59;22.13;66.58
72128;DHT22;60000;51.030;7.024;2023-07-29T09:01:27;21.97;67.43
72128;DHT22;60000;51.030;7.024;2023-07-29T09:03:53;21.89;68.19
72128;DHT22;60000;51.030;7.024;2023-07-29T09:06:18;21.83;68.56
72128;DHT22;60000;51.030;7.024;2023-07-29T09:08:45;21.78;68.03
72128;DHT22;60000;51.030;7.024;2023-07-29T09:11:13;21.69;68.44
72128;DHT22;60000;51.030;7.024;2023-07-29T09:13:39;21.72;68.69
72128;DHT22;60000;51.030;7.024;2023-07-29T09:16:04;21.65;68.12
72128;DHT22;60000;51.030;7.024;2023-07-29T09:18:30;21.66;68.69
72128;DHT22;60000;51.030;7.024;2023-07-29T09:20:58;21.66;68.83
72128;DHT22;60000;51.030;7.024;2023-07-29T09:23:25;21.71;69.42
72128;DHT22;60000;51.030;7.024;2023-07-29T09:26:00;21.69;69.53
72128;DHT22;60000;51.030;7.024;2023-07-29T09:28:26;21.71;69.85
72128;DHT22;60000;51.030;7.024;2023-07-29T09:30:52;21.72;69.48
72128;DHT22;60000;51.030;7.024;2023-07-29T09:33:18;21.76;69.65
72128;DHT22;60000;51.030;7.024;2023-07-29T09:35:44;21.85;70.19
72128;DHT22;60000;51.030;7.024;2023-07-29T09:38:14;21.94;70.53
72128;DHT22;60000;51.030;7.024;2023-07-29T09:40:41;21.89;69.18
72128;DHT22;60000;51.030;7.024;2023-07-29T09:43:07;21.88;68.93
72128;DHT22;60000;51.030;7.024;2023-07-29T09:45:34;21.86;68.46
72128;DHT22;60000;51.030;7.024;2023-07-29T09:48:03;21.80;68.27
72128;DHT22;60000;51.030;7.024;2023-07-29T09:50:30;21.75;68.05
72128;DHT22;60000;51.030;7.024;2023-07-29T09:52:56;21.72;68.19
72128;DHT22;60000;51.030;7.024;2023-07-29T09:55:24;21.69;68.16
72128;DHT22;60000;51.030;7.024;2023-07-29T09:57:59;21.82;68.66
72128;DHT22;60000;51.030;7.024;2023-07-29T10:00:30;21.99;68.99
72128;DHT22;60000;51.030;7.024;2023-07-29T10:02:57;22.09;68.43
72128;DHT22;60000;51.030;7.024;2023-07-29T10:05:25;22.20;68.78
72128;DHT22;60000;51.030;7.024;2023-07-29T10:07:50;22.20;67.65
72128;DHT22;60000;51.030;7.024;2023-07-29T10:10:16;22.36;66.70
72128;DHT22;60000;51.030;7.024;2023-07-29T10:12:42;22.47;67.43
72128;DHT22;60000;51.030;7.024;2023-07-29T10:15:08;22.67;66.86
72128;DHT22;60000;51.030;7.024;2023-07-29T10:17:35;23.00;66.41
72128;DHT22;60000;51.030;7.024;2023-07-29T10:20:03;23.39;65.91
72128;DHT22;60000;51.030;7.024;2023-07-29T10:22:33;23.39;64.44
72128;DHT22;60000;51.030;7.024;2023-07-29T10:25:21;23.23;63.23
72128;DHT22;60000;51.030;7.024;2023-07-29T10:30:13;23.02;64.46
72128;DHT22;60000;51.030;7.024;2023-07-29T10:32:41;22.94;65.71
72128;DHT22;60000;51.030;7.024;2023-07-29T10:35:08;22.85;66.01
72128;DHT22;60000;51.030;7.024;2023-07-29T10:37:34;22.67;65.84
72128;DHT22;60000;51.030;7.024;2023-07-29T10:39:59;22.48;66.25
72128;DHT22;60000;51.030;7.024;2023-07-29T10:42:25;22.29;67.11
72128;DHT22;60000;51.030;7.024;2023-07-29T10:44:52;22.24;68.38
72128;DHT22;60000;51.030;7.024;2023-07-29T10:47:22;22.13;69.06
72128;DHT22;60000;51.030;7.024;2023-07-29T10:49:53;22.07;70.23
72128;DHT22;60000;51.030;7.024;2023-07-29T10:55:00;22.01;71.22
72128;DHT22;60000;51.030;7.024;2023-07-29T10:57:33;22.04;71.10
72128;DHT22;60000;51.030;7.024;2023-07-29T10:59:59;21.90;70.23
72128;DHT22;60000;51.030;7.024;2023-07-29T11:02:34;21.83;70.46
72128;DHT22;60000;51.030;7.024;2023-07-29T11:05:07;21.79;70.95
72128;DHT22;60000;51.030;7.024;2023-07-29T11:07:43;21.71;70.89
72128;DHT22;60000;51.030;7.024;2023-07-29T11:10:09;21.62;70.79
72128;DHT22;60000;51.030;7.024;2023-07-29T11:12:42;21.66;71.45
72128;DHT22;60000;51.030;7.024;2023-07-29T11:17:47;21.78;70.69
72128;DHT22;60000;51.030;7.024;2023-07-29T11:20:14;21.96;70.93
72128;DHT22;60000;51.030;7.024;2023-07-29T11:22:40;22.23;70.37
72128;DHT22;60000;51.030;7.024;2023-07-29T11:25:08;22.33;69.04
72128;DHT22;60000;51.030;7.024;2023-07-29T11:27:33;22.40;68.72
72128;DHT22;60000;51.030;7.024;2023-07-29T11:30:00;22.43;68.00
72128;DHT22;60000;51.030;7.024;2023-07-29T11:32:26;22.81;68.44
72128;DHT22;60000;51.030;7.024;2023-07-29T11:34:52;23.26;67.60
72128;DHT22;60000;51.030;7.024;2023-07-29T11:37:17;23.66;67.09
72128;DHT22;60000;51.030;7.024;2023-07-29T11:39:44;23.73;65.70
72128;DHT22;60000;51.030;7.024;2023-07-29T11:42:11;23.77;65.36
72128;DHT22;60000;51.030;7.024;2023-07-29T11:44:36;23.89;65.53
72128;DHT22;60000;51.030;7.024;2023-07-29T11:47:02;24.36;65.96
72128;DHT22;60000;51.030;7.024;2023-07-29T11:49:30;24.75;64.03
72128;DHT22;60000;51.030;7.024;2023-07-29T11:51:57;25.18;63.93
72128;DHT22;60000;51.030;7.024;2023-07-29T11:54:22;25.51;62.69
72128;DHT22;60000;51.030;7.024;2023-07-29T11:56:48;25.48;61.62
72128;DHT22;60000;51.030;7.024;2023-07-29T11:59:14;25.28;60.67
72128;DHT22;60000;51.030;7.024;2023-07-29T12:01:40;24.98;61.48
72128;DHT22;60000;51.030;7.024;2023-07-29T12:04:05;24.63;61.11
72128;DHT22;60000;51.030;7.024;2023-07-29T12:06:30;24.49;62.90
72128;DHT22;60000;51.030;7.024;2023-07-29T12:08:56;24.48;63.42
72128;DHT22;60000;51.030;7.024;2023-07-29T12:11:22;24.87;62.20
72128;DHT22;60000;51.030;7.024;2023-07-29T12:13:48;25.25;61.94
72128;DHT22;60000;51.030;7.024;2023-07-29T12:16:16;25.58;60.12
72128;DHT22;60000;51.030;7.024;2023-07-29T12:18:43;25.79;60.12
72128;DHT22;60000;51.030;7.024;2023-07-29T12:21:08;25.79;58.31
72128;DHT22;60000;51.030;7.024;2023-07-29T12:23:33;26.00;59.56
72128;DHT22;60000;51.030;7.024;2023-07-29T12:25:59;25.94;58.84
72128;DHT22;60000;51.030;7.024;2023-07-29T12:28:25;25.78;58.20
72128;DHT22;60000;51.030;7.024;2023-07-29T12:30:57;25.81;58.88
72128;DHT22;60000;51.030;7.024;2023-07-29T12:33:34;25.82;58.46
72128;DHT22;60000;51.030;7.024;2023-07-29T12:36:01;25.99;57.94
72128;DHT22;60000;51.030;7.024;2023-07-29T12:38:27;26.23;57.28
72128;DHT22;60000;51.030;7.024;2023-07-29T12:40:53;26.37;56.51
72128;DHT22;60000;51.030;7.024;2023-07-29T12:43:18;26.39;56.62
72128;DHT22;60000;51.030;7.024;2023-07-29T12:45:44;26.50;55.63
72128;DHT22;60000;51.030;7.024;2023-07-29T12:48:10;26.62;54.23
72128;DHT22;60000;51.030;7.024;2023-07-29T12:50:35;26.70;54.12
72128;DHT22;60000;51.030;7.024;2023-07-29T12:53:01;26.54;53.84
72128;DHT22;60000;51.030;7.024;2023-07-29T12:55:26;26.47;54.64
72128;DHT22;60000;51.030;7.024;2023-07-29T12:57:51;26.33;54.82
72128;DHT22;60000;51.030;7.024;2023-07-29T13:00:17;26.20;55.40
72128;DHT22;60000;51.030;7.024;2023-07-29T13:02:42;25.97;55.07
72128;DHT22;60000;51.030;7.024;2023-07-29T13:05:09;25.75;55.92
72128;DHT22;60000;51.030;7.024;2023-07-29T13:07:36;25.45;56.15
72128;DHT22;60000;51.030;7.024;2023-07-29T13:10:02;25.31;57.54
72128;DHT22;60000;51.030;7.024;2023-07-29T13:12:28;25.13;57.93
72128;DHT22;60000;51.030;7.024;2023-07-29T13:14:53;24.98;58.69
72128;DHT22;60000;51.030;7.024;2023-07-29T13:17:19;24.90;58.79
72128;DHT22;60000;51.030;7.024;2023-07-29T13:19:44;24.84;59.19
72128;DHT22;60000;51.030;7.024;2023-07-29T13:22:09;24.66;58.90
72128;DHT22;60000;51.030;7.024;2023-07-29T13:24:34;24.59;60.24
72128;DHT22;60000;51.030;7.024;2023-07-29T13:27:00;24.55;60.73
72128;DHT22;60000;51.030;7.024;2023-07-29T13:29:25;24.46;60.53
72128;DHT22;60000;51.030;7.024;2023-07-29T13:31:50;24.38;61.19
72128;DHT22;60000;51.030;7.024;2023-07-29T13:34:15;24.21;60.57
72128;DHT22;60000;51.030;7.024;2023-07-29T13:36:41;23.95;60.31
72128;DHT22;60000;51.030;7.024;2023-07-29T13:39:06;23.78;60.75
72128;DHT22;60000;51.030;7.024;2023-07-29T13:41:31;23.63;61.18
72128;DHT22;60000;51.030;7.024;2023-07-29T13:43:57;23.45;61.86
72128;DHT22;60000;51.030;7.024;2023-07-29T13:46:22;23.36;63.03
72128;DHT22;60000;51.030;7.024;2023-07-29T13:48:47;23.29;63.49
72128;DHT22;60000;51.030;7.024;2023-07-29T13:51:13;23.23;65.20
72128;DHT22;60000;51.030;7.024;2023-07-29T13:53:38;23.13;66.03
72128;DHT22;60000;51.030;7.024;2023-07-29T13:56:04;23.00;66.56
72128;DHT22;60000;51.030;7.024;2023-07-29T13:58:30;22.85;67.50
72128;DHT22;60000;51.030;7.024;2023-07-29T14:00:55;22.68;68.72
72128;DHT22;60000;51.030;7.024;2023-07-29T14:03:20;22.54;69.69
72128;DHT22;60000;51.030;7.024;2023-07-29T14:05:45;22.40;70.92
72128;DHT22;60000;51.030;7.024;2023-07-29T14:08:11;22.30;72.17
72128;DHT22;60000;51.030;7.024;2023-07-29T14:10:36;22.18;73.43
72128;DHT22;60000;51.030;7.024;2023-07-29T14:13:01;22.14;74.54
72128;DHT22;60000;51.030;7.024;2023-07-29T14:15:27;22.20;75.25
72128;DHT22;60000;51.030;7.024;2023-07-29T14:17:53;22.21;75.85
72128;DHT22;60000;51.030;7.024;2023-07-29T14:20:19;22.27;76.37
72128;DHT22;60000;51.030;7.024;2023-07-29T14:22:44;22.29;76.29
72128;DHT22;60000;51.030;7.024;2023-07-29T14:25:10;22.37;76.54
72128;DHT22;60000;51.030;7.024;2023-07-29T14:27:36;22.65;77.71
72128;DHT22;60000;51.030;7.024;2023-07-29T14:30:01;23.08;78.16
72128;DHT22;60000;51.030;7.024;2023-07-29T14:32:27;23.18;77.02
72128;DHT22;60000;51.030;7.024;2023-07-29T14:34:52;23.24;76.35
72128;DHT22;60000;51.030;7.024;2023-07-29T14:37:19;23.16;75.08
72128;DHT22;60000;51.030;7.024;2023-07-29T14:39:44;23.22;74.77
72128;DHT22;60000;51.030;7.024;2023-07-29T14:42:09;23.23;74.73
72128;DHT22;60000;51.030;7.024;2023-07-29T14:44:35;23.24;74.40
72128;DHT22;60000;51.030;7.024;2023-07-29T14:47:00;23.18;73.73
72128;DHT22;60000;51.030;7.024;2023-07-29T14:49:25;23.10;73.79
72128;DHT22;60000;51.030;7.024;2023-07-29T14:51:50;23.03;73.79
72128;DHT22;60000;51.030;7.024;2023-07-29T14:54:16;22.85;72.78
72128;DHT22;60000;51.030;7.024;2023-07-29T14:56:41;22.76;73.54
72128;DHT22;60000;51.030;7.024;2023-07-29T14:59:07;22.72;73.74
72128;DHT22;60000;51.030;7.024;2023-07-29T15:01:32;22.78;74.71
72128;DHT22;60000;51.030;7.024;2023-07-29T15:03:57;22.87;75.21
72128;DHT22;60000;51.030;7.024;2023-07-29T15:06:23;22.85;74.35
72128;DHT22;60000;51.030;7.024;2023-07-29T15:08:48;22.85;74.13
72128;DHT22;60000;51.030;7.024;2023-07-29T15:11:13;22.89;74.54
72128;DHT22;60000;51.030;7.024;2023-07-29T15:13:38;22.94;74.93
72128;DHT22;60000;51.030;7.024;2023-07-29T15:16:05;22.99;74.16
72128;DHT22;60000;51.030;7.024;2023-07-29T15:18:30;23.03;74.49
72128;DHT22;60000;51.030;7.024;2023-07-29T15:20:56;23.12;73.80
72128;DHT22;60000;51.030;7.024;2023-07-29T15:23:22;22.99;72.59
72128;DHT22;60000;51.030;7.024;2023-07-29T15:25:48;22.99;72.95
72128;DHT22;60000;51.030;7.024;2023-07-29T15:28:14;22.84;71.98
72128;DHT22;60000;51.030;7.024;2023-07-29T15:30:39;22.76;72.21
72128;DHT22;60000;51.030;7.024;2023-07-29T15:33:04;22.73;71.25
72128;DHT22;60000;51.030;7.024;2023-07-29T15:35:36;22.73;71.00